Nearby METAR Reports


KSYR - Syracuse, New York, USA
Distance from station: SE 5mi, 8km
Updated: Sat, 22-Sep-2018 12:54am EDT
Partly cloudy
Partly cloudy
 Wind from WNW
Wind: WNW 10 mph , 17 km/h
Temperature: 66°F , 19°C
Dew Point: 59°F , 15°C
Humidity: 78%
Barometer: 29.93 inHg , 1013.5 hPa
Clouds: Partly cloudy
Visibility: 10 miles , 16 km
Cloud details: Few Clouds 6500 ft
Partly cloudy 10000 ft
2018/09/22 04:54 KSYR 220454Z 29009KT 10SM FEW065 SCT100 19/15 A2993 RMK AO2 SLP129 PK WND 30031/0402 WSHFT FROPA T01890150 402610183
KFZY - Fulton, New York, USA
Distance from station: NW 17mi, 27km
Updated: Sat, 22-Sep-2018 12:54am EDT
Clear
Clear
 Wind from WNW
Wind: WNW 14 mph , 22 km/h, Gust: 22 mph , 35 km/h
Temperature: 66°F , 19°C
Dew Point: 54°F , 12°C
Humidity: 64%
Barometer: 29.93 inHg , 1013.5 hPa
Clouds: Clear
Visibility: 10 miles , 16 km
2018/09/22 04:54 KFZY 220454Z AUTO 30012G19KT 10SM CLR 19/12 A2993 RMK AO2 SLP131 T01890117 402830189
 
KRME - Rome/Griffiss Af, New York, USA
Distance from station: E 39mi, 62km
Updated: Sat, 22-Sep-2018 1:03am EDT
Partly cloudy
Partly cloudy
 Wind from WNW
Wind: WNW 15 mph , 24 km/h, Gust: 29 mph , 46 km/h
Temperature: 66°F , 19°C
Dew Point: 61°F , 16°C
Humidity: 83%
Barometer: 29.91 inHg , 1012.9 hPa
Clouds: Partly cloudy
Visibility: 10 miles , 16 km
Cloud details: Few Clouds 2400 ft
Partly cloudy 5000 ft
2018/09/22 05:03 KRME 220503Z AUTO 30013G25KT 10SM FEW024 SCT050 19/16 A2991 RMK AO2 T01890161
KITH - Ithaca/Tompkins, New York, USA
Distance from station: SSW 51mi, 82km
Updated: Sat, 22-Sep-2018 1:22am EDT
Overcast
Overcast
 Wind from NNW
Wind: NNW 12 mph , 19 km/h, Gust: 24 mph , 39 km/h
Temperature: 64°F , 18°C
Dew Point: 59°F , 15°C
Humidity: 83%
Barometer: 29.99 inHg , 1015.6 hPa
Clouds: Overcast
Visibility: 10 miles , 16 km
Cloud details: Partly cloudy 2600 ft
Mostly cloudy 3200 ft
Overcast 4200 ft
2018/09/22 05:22 KITH 220522Z AUTO 33010G21KT 10SM SCT026 BKN032 OVC042 18/15 A2999 RMK AO2
 
KART - Watertown, New York, USA
Distance from station: N 56mi, 91km
Updated: Sat, 22-Sep-2018 12:56am EDT
Clear
Clear
 Wind from W
Wind: W 24 mph , 39 km/h, Gust: 36 mph , 57 km/h
Temperature: 66°F , 19°C
Dew Point: 54°F , 12°C
Humidity: 64%
Barometer: 29.88 inHg , 1011.9 hPa
Clouds: Clear
Visibility: 10 miles , 16 km
2018/09/22 04:56 KART 220456Z AUTO 27021G31KT 10SM CLR 19/12 A2988 RMK AO2 PK WND 26031/0455 SLP113 T01890117 402780156 $
KPEO - Penn Yan, New York, USA
Distance from station: SW 58mi, 93km
Updated: Sat, 22-Sep-2018 12:53am EDT
Mostly cloudy
Mostly cloudy
 Wind from WNW
Wind: WNW 9 mph , 15 km/h, Gust: 21 mph , 33 km/h
Temperature: 68°F , 20°C
Dew Point: 57°F , 14°C
Humidity: 69%
Barometer: 29.97 inHg , 1014.9 hPa
Clouds: Mostly cloudy
Visibility: 10 miles , 16 km
Cloud details: Partly cloudy 4600 ft
Mostly cloudy 6000 ft
2018/09/22 04:53 KPEO 220453Z AUTO 30008G18KT 10SM SCT046 BKN060 20/14 A2997 RMK AO2 SLP142 T02000139 402720200
 
KGTB - Fort Drum/Wheele, New York, USA
Distance from station: NNE 64mi, 102km
Updated: Fri, 21-Sep-2018 9:06pm EDT
NOT Current
Overcast
Overcast
 Wind from WSW
Wind: WSW 18 mph , 30 km/h, Gust: 32 mph , 52 km/h
Temperature: 73°F , 23°C
Dew Point: 73°F , 23°C
Humidity: 100%
Barometer: 29.72 inHg , 1006.4 hPa
Clouds: Overcast
Visibility: 10 miles , 16 km
Cloud details: Partly cloudy 2900 ft
Mostly cloudy 6000 ft
Overcast 19000 ft
2018/09/22 01:06 KGTB 220106Z AUTO 24016G28KT 10SM SCT029 BKN060 OVC190 23/23 A2972 RMK AO2 SLP061 TSNO $
CWQP - Point Petre (mar, Ontario, Canada
Distance from station: NW 67mi, 107km
Updated: Sat, 22-Sep-2018 1:00am EDT

 Wind from NW
Wind: NW 26 mph , 43 km/h, Gust: 35 mph , 56 km/h
Temperature: 63°F , 17°C
Dew Point: 50°F , 10°C
Humidity: 64%
2018/09/22 05:00 CWQP 220500Z AUTO 31023G30KT 17/10 RMK AO1 PK WND 28042/0412 SLP136 T01710104 51056
 
KBGM - Binghamton, New York, USA
Distance from station: S 67mi, 107km
Updated: Sat, 22-Sep-2018 1:15am EDT
Mostly cloudy
Mostly cloudy
 Wind from W
Wind: W 9 mph , 15 km/h
Temperature: 66°F , 19°C
Dew Point: 64°F , 18°C
Humidity: 94%
Barometer: 29.96 inHg , 1014.6 hPa
Clouds: Mostly cloudy
Visibility: 10 miles , 16 km
Cloud details: Few Clouds 700 ft
Partly cloudy 2800 ft
Mostly cloudy 4900 ft
2018/09/22 05:15 KBGM 220515Z AUTO 26008KT 10SM FEW007 SCT028 BKN049 19/18 A2996 RMK AO2 T01890183
CYGK - Kingston Arpt (m, Ontario, Canada
Distance from station: NNW 75mi, 121km
Updated: Fri, 21-Sep-2018 11:00pm EDT
NOT Current
Few Clouds
Few Clouds
 Wind from W
Wind: W 21 mph , 33 km/h, Gust: 32 mph , 52 km/h
Temperature: 68°F , 20°C
Dew Point: 52°F , 11°C
Humidity: 56%
Barometer: 29.80 inHg , 1009.1 hPa
Clouds: Few Clouds
Visibility: 15 miles , 24 km
Cloud details: Few Clouds 24000 ft
2018/09/22 03:00 CYGK 220300Z 28018G28KT 15SM FEW240 20/11 A2980 RMK CI2 LAST STFD OBS/NEXT 221000 UTC SLP092 DENSITY ALT 1200FT